createdAt,value
2022-09-18T00:01:13.544Z,20.90
2022-09-18T00:03:42.766Z,20.90
2022-09-18T00:06:12.333Z,20.90
2022-09-18T00:08:41.121Z,20.80
2022-09-18T00:11:11.532Z,20.80
2022-09-18T00:13:40.593Z,20.70
2022-09-18T00:16:12.736Z,20.80
2022-09-18T00:18:40.943Z,20.80
2022-09-18T00:21:10.879Z,20.70
2022-09-18T00:23:39.354Z,20.60
2022-09-18T00:26:08.886Z,20.70
2022-09-18T00:28:37.237Z,20.60
2022-09-18T00:31:06.556Z,20.60
2022-09-18T00:33:37.498Z,20.60
2022-09-18T00:36:07.310Z,20.70
2022-09-18T00:38:36.047Z,20.60
2022-09-18T00:41:07.142Z,20.60
2022-09-18T00:43:37.190Z,20.70
2022-09-18T00:46:08.430Z,20.60
2022-09-18T00:48:45.883Z,20.70
2022-09-18T00:51:15.071Z,20.60
2022-09-18T00:53:49.115Z,20.70
2022-09-18T00:56:17.291Z,20.60
2022-09-18T00:58:46.057Z,20.60
2022-09-18T01:01:14.069Z,20.60
2022-09-18T01:03:43.455Z,20.50
2022-09-18T01:06:15.514Z,20.60
2022-09-18T01:08:56.402Z,20.60
2022-09-18T01:11:35.916Z,20.50
2022-09-18T01:14:16.244Z,20.50
2022-09-18T01:16:52.797Z,20.70
2022-09-18T01:19:52.099Z,20.60
2022-09-18T01:22:30.485Z,20.50
2022-09-18T01:25:11.350Z,20.50
2022-09-18T01:28:00.890Z,20.50
2022-09-18T01:30:29.293Z,20.40
2022-09-18T01:33:00.991Z,20.50
2022-09-18T01:35:41.582Z,20.60
2022-09-18T01:38:14.946Z,20.50
2022-09-18T01:40:47.617Z,20.40
2022-09-18T01:43:20.514Z,20.40
2022-09-18T01:45:51.609Z,20.40
2022-09-18T01:48:25.998Z,20.50
2022-09-18T01:50:57.132Z,20.50
2022-09-18T01:53:30.146Z,20.50
2022-09-18T01:56:02.577Z,20.40
2022-09-18T01:58:35.491Z,20.50
2022-09-18T02:01:09.068Z,20.30
2022-09-18T02:03:40.587Z,20.30
2022-09-18T02:06:12.747Z,20.50
2022-09-18T02:08:45.054Z,20.40
2022-09-18T02:11:15.045Z,20.40
2022-09-18T02:13:48.930Z,20.30
2022-09-18T02:16:23.212Z,20.40
2022-09-18T02:18:55.862Z,20.30
2022-09-18T02:21:27.443Z,20.40
2022-09-18T02:23:57.367Z,20.50
2022-09-18T02:26:25.770Z,20.30
2022-09-18T02:28:56.862Z,20.40
2022-09-18T02:31:25.118Z,20.30
2022-09-18T02:33:53.569Z,20.30
2022-09-18T02:36:43.707Z,20.40
2022-09-18T02:39:26.553Z,20.30
2022-09-18T02:42:03.671Z,20.30
2022-09-18T02:44:43.392Z,20.30
2022-09-18T02:47:23.748Z,20.30
2022-09-18T02:49:59.904Z,20.20
2022-09-18T02:52:36.468Z,20.30
2022-09-18T02:55:11.539Z,20.20
2022-09-18T02:57:45.137Z,20.40
2022-09-18T03:00:18.576Z,20.40
2022-09-18T03:02:47.178Z,20.30
2022-09-18T03:05:15.169Z,20.40
2022-09-18T03:07:43.043Z,20.30
2022-09-18T03:10:14.430Z,20.30
2022-09-18T03:12:42.267Z,20.30
2022-09-18T03:15:11.546Z,20.30
2022-09-18T03:17:40.756Z,20.30
2022-09-18T03:20:09.366Z,20.20
2022-09-18T03:22:37.246Z,20.20
2022-09-18T03:25:05.778Z,20.20
2022-09-18T03:27:33.638Z,20.20
2022-09-18T03:30:01.489Z,20.20
2022-09-18T03:32:29.377Z,20.30
2022-09-18T03:34:58.578Z,20.20
2022-09-18T03:37:26.422Z,20.20
2022-09-18T03:39:54.361Z,20.20
2022-09-18T03:42:22.246Z,20.20
2022-09-18T03:44:50.144Z,20.20
2022-09-18T03:47:17.991Z,20.10
2022-09-18T03:49:45.870Z,20.20
2022-09-18T03:52:15.148Z,20.20
2022-09-18T03:54:43.027Z,20.20
2022-09-18T03:57:10.936Z,20.20
2022-09-18T03:59:38.944Z,20.20
2022-09-18T04:02:06.843Z,20.20
2022-09-18T04:04:35.507Z,20.10
2022-09-18T04:07:03.470Z,20.20
2022-09-18T04:09:32.754Z,20.20
2022-09-18T04:12:00.862Z,20.10
2022-09-18T04:14:30.250Z,20.20
2022-09-18T04:16:58.343Z,20.20
2022-09-18T04:19:26.234Z,20.10
2022-09-18T04:21:54.125Z,20.10
2022-09-18T04:24:21.997Z,20.10
2022-09-18T04:26:51.216Z,20.10
2022-09-18T04:29:19.098Z,20.10
2022-09-18T04:31:47.032Z,20.10
2022-09-18T04:34:15.953Z,20.10
2022-09-18T04:36:43.817Z,20.10
2022-09-18T04:39:11.790Z,20.10
2022-09-18T04:41:39.775Z,20.10
2022-09-18T04:44:09.110Z,20.10
2022-09-18T04:46:37.084Z,20.10
2022-09-18T04:49:05.207Z,20.10
2022-09-18T04:51:33.053Z,20.20
2022-09-18T04:54:01.219Z,20.10
2022-09-18T04:56:29.319Z,20.10
2022-09-18T04:58:57.181Z,20.10
2022-09-18T05:01:26.443Z,20.00
2022-09-18T05:03:54.286Z,20.10
2022-09-18T05:06:22.121Z,20.10
2022-09-18T05:08:49.948Z,20.00
2022-09-18T05:11:17.851Z,20.00
2022-09-18T05:13:48.565Z,20.00
2022-09-18T05:16:16.979Z,20.00
2022-09-18T05:18:46.275Z,20.00
2022-09-18T05:21:14.311Z,20.00
2022-09-18T05:23:45.070Z,20.10
2022-09-18T05:26:13.311Z,20.00
2022-09-18T05:28:41.254Z,20.00
2022-09-18T05:31:09.352Z,20.00
2022-09-18T05:33:38.660Z,19.90
2022-09-18T05:36:08.326Z,20.00
2022-09-18T05:38:36.229Z,19.90
2022-09-18T05:41:04.820Z,20.00
2022-09-18T05:43:32.728Z,20.00
2022-09-18T05:46:02.124Z,20.00
2022-09-18T05:48:30.014Z,20.00
2022-09-18T05:50:58.055Z,19.90
2022-09-18T05:53:27.328Z,19.90
2022-09-18T05:55:55.215Z,19.90
2022-09-18T05:58:23.114Z,20.00
2022-09-18T06:00:52.322Z,19.90
2022-09-18T06:03:20.343Z,20.00
2022-09-18T06:05:53.486Z,19.90
2022-09-18T06:08:22.164Z,19.90
2022-09-18T06:10:51.939Z,19.90
2022-09-18T06:13:20.085Z,20.00
2022-09-18T06:15:49.758Z,19.90
2022-09-18T06:18:17.692Z,19.90
2022-09-18T06:20:53.334Z,20.00
2022-09-18T06:23:21.409Z,20.00
2022-09-18T06:25:49.299Z,20.00
2022-09-18T06:28:18.545Z,19.90
2022-09-18T06:30:46.423Z,19.90
2022-09-18T06:33:14.340Z,19.90
2022-09-18T06:35:42.555Z,19.80
2022-09-18T06:38:11.580Z,19.60
2022-09-18T06:40:39.551Z,20.00
2022-09-18T06:43:07.483Z,20.00
2022-09-18T06:45:36.739Z,19.90
2022-09-18T06:48:05.274Z,19.90
2022-09-18T06:50:33.206Z,19.90
2022-09-18T06:53:03.063Z,19.90
2022-09-18T06:55:31.573Z,19.90
2022-09-18T06:58:00.102Z,19.90
2022-09-18T07:00:29.145Z,19.90
2022-09-18T07:03:00.029Z,19.90
2022-09-18T07:05:29.823Z,19.90
2022-09-18T07:07:57.957Z,19.90
2022-09-18T07:10:27.046Z,19.90
2022-09-18T07:12:57.394Z,19.90
2022-09-18T07:15:25.283Z,19.90
2022-09-18T07:17:53.190Z,19.90
2022-09-18T07:20:22.573Z,19.90
2022-09-18T07:22:54.218Z,19.90
2022-09-18T07:25:22.569Z,19.90
2022-09-18T07:27:50.874Z,19.80
2022-09-18T07:30:19.286Z,19.90
2022-09-18T07:32:47.383Z,19.90
2022-09-18T07:35:15.469Z,19.90
2022-09-18T07:37:44.767Z,19.90
2022-09-18T07:40:12.899Z,20.00
2022-09-18T07:42:40.946Z,20.00
2022-09-18T07:45:09.274Z,20.20
2022-09-18T07:47:37.159Z,20.00
2022-09-18T07:50:05.560Z,20.10
2022-09-18T07:52:33.462Z,20.00
2022-09-18T07:55:02.663Z,20.00
2022-09-18T07:57:30.887Z,20.00
2022-09-18T07:59:58.838Z,20.00
2022-09-18T08:02:26.887Z,20.00
2022-09-18T08:04:54.811Z,20.00
2022-09-18T08:07:22.756Z,20.20
2022-09-18T08:09:50.690Z,20.00
2022-09-18T08:12:19.933Z,19.90
2022-09-18T08:14:47.841Z,20.00
2022-09-18T08:17:15.810Z,20.10
2022-09-18T08:19:43.711Z,20.10
2022-09-18T08:22:11.665Z,20.00
2022-09-18T08:24:39.609Z,20.00
2022-09-18T08:27:07.551Z,20.10
2022-09-18T08:29:36.823Z,20.00
2022-09-18T08:32:09.571Z,20.10
2022-09-18T08:34:37.780Z,20.10
2022-09-18T08:37:05.719Z,20.00
2022-09-18T08:39:33.615Z,20.10
2022-09-18T08:42:12.663Z,20.10
2022-09-18T08:44:48.752Z,20.10
2022-09-18T08:47:22.120Z,20.10
2022-09-18T08:49:55.169Z,19.90
2022-09-18T08:52:25.743Z,20.10
2022-09-18T08:54:58.935Z,20.10
2022-09-18T08:57:31.834Z,20.10
2022-09-18T09:00:07.083Z,19.90
2022-09-18T09:02:41.138Z,20.00
2022-09-18T09:05:12.365Z,20.00
2022-09-18T09:07:55.246Z,20.00
2022-09-18T09:10:37.723Z,20.00
2022-09-18T09:13:44.929Z,19.90
2022-09-18T09:16:17.524Z,20.00
2022-09-18T09:18:56.345Z,20.10
2022-09-18T09:21:25.765Z,20.10
2022-09-18T09:24:17.165Z,20.10
2022-09-18T09:26:45.373Z,20.20
2022-09-18T09:29:17.588Z,20.10
2022-09-18T09:31:51.534Z,20.10
2022-09-18T09:34:23.202Z,20.20
2022-09-18T09:36:54.612Z,20.30
2022-09-18T09:39:27.079Z,20.30
2022-09-18T09:41:59.180Z,20.40
2022-09-18T09:44:35.276Z,20.40
2022-09-18T09:47:16.557Z,20.40
2022-09-18T09:49:54.679Z,20.40
2022-09-18T09:52:25.307Z,20.50
2022-09-18T09:54:57.176Z,20.40
2022-09-18T09:57:30.130Z,20.40
2022-09-18T10:00:09.200Z,20.40
2022-09-18T10:03:11.437Z,20.40
2022-09-18T10:05:44.429Z,20.50
2022-09-18T10:08:17.998Z,20.50
2022-09-18T10:10:50.335Z,20.50
2022-09-18T10:13:22.114Z,20.60
2022-09-18T10:15:52.886Z,20.40
2022-09-18T10:18:26.002Z,20.50
2022-09-18T10:20:58.675Z,20.40
2022-09-18T10:23:34.030Z,20.40
2022-09-18T10:26:02.800Z,20.40
2022-09-18T10:28:31.414Z,20.50
2022-09-18T10:31:02.418Z,20.40
2022-09-18T10:33:38.232Z,20.50
2022-09-18T10:36:30.374Z,20.50
2022-09-18T10:39:00.152Z,20.50
2022-09-18T10:41:40.440Z,20.50
2022-09-18T10:44:22.365Z,20.60
2022-09-18T10:46:57.510Z,20.70
2022-09-18T10:49:30.399Z,20.60
2022-09-18T10:52:35.094Z,20.70
2022-09-18T10:55:12.843Z,20.60
2022-09-18T10:57:43.722Z,20.70
2022-09-18T11:00:37.086Z,20.70
2022-09-18T11:03:49.656Z,20.70
2022-09-18T11:06:23.842Z,20.70
2022-09-18T11:08:53.595Z,20.70
2022-09-18T11:11:26.165Z,20.70
2022-09-18T11:13:59.529Z,20.60
2022-09-18T11:16:29.675Z,20.70
2022-09-18T11:19:07.596Z,20.60
2022-09-18T11:21:45.066Z,20.60
2022-09-18T11:24:21.756Z,20.70
2022-09-18T11:26:54.772Z,20.60
2022-09-18T11:29:42.215Z,20.60
2022-09-18T11:32:17.046Z,20.40
2022-09-18T11:34:49.528Z,20.50
2022-09-18T11:37:28.468Z,20.50
2022-09-18T11:40:00.785Z,20.50
2022-09-18T11:42:29.224Z,20.50
2022-09-18T11:45:10.615Z,20.40
2022-09-18T11:47:43.860Z,20.40
2022-09-18T11:50:16.403Z,20.40
2022-09-18T11:52:47.299Z,20.30
2022-09-18T11:55:25.059Z,20.30
2022-09-18T11:57:55.431Z,20.50
2022-09-18T12:00:24.602Z,20.50
2022-09-18T12:03:02.333Z,20.40
2022-09-18T12:05:36.326Z,20.50
2022-09-18T12:08:15.712Z,20.50
2022-09-18T12:10:52.687Z,20.40
2022-09-18T12:13:34.238Z,20.40
2022-09-18T12:16:11.963Z,20.40
2022-09-18T12:18:54.905Z,20.40
2022-09-18T12:21:36.122Z,20.40
2022-09-18T12:24:13.040Z,20.30
2022-09-18T12:26:52.327Z,20.40
2022-09-18T12:29:33.453Z,20.30
2022-09-18T12:32:14.034Z,20.30
2022-09-18T12:34:49.622Z,20.30
2022-09-18T12:37:36.188Z,20.30
2022-09-18T12:40:25.403Z,20.30
2022-09-18T12:43:06.910Z,20.30
2022-09-18T12:46:02.985Z,20.30
2022-09-18T12:48:41.345Z,20.30
2022-09-18T12:51:32.370Z,20.30
2022-09-18T12:54:13.250Z,20.40
2022-09-18T12:57:01.377Z,20.30
2022-09-18T12:59:55.057Z,20.20
2022-09-18T13:02:38.790Z,20.30
2022-09-18T13:05:12.567Z,20.30
2022-09-18T13:07:47.832Z,20.30
2022-09-18T13:10:21.178Z,20.30
2022-09-18T13:12:55.900Z,20.30
2022-09-18T13:15:28.328Z,20.20
2022-09-18T13:18:04.487Z,20.40
2022-09-18T13:20:37.424Z,20.40
2022-09-18T13:23:07.046Z,20.50
2022-09-18T13:25:39.298Z,20.40
2022-09-18T13:28:15.763Z,20.50
2022-09-18T13:30:44.778Z,20.40
2022-09-18T13:33:24.405Z,20.40
2022-09-18T13:35:56.670Z,20.50
2022-09-18T13:38:27.681Z,20.40
2022-09-18T13:41:01.642Z,20.40
2022-09-18T13:43:40.951Z,20.30
2022-09-18T13:46:11.027Z,20.40
2022-09-18T13:48:45.819Z,20.40
2022-09-18T13:51:22.148Z,20.40
2022-09-18T13:54:17.644Z,20.40
2022-09-18T13:57:21.938Z,20.40
2022-09-18T14:00:19.625Z,20.40
2022-09-18T14:02:49.673Z,20.30
2022-09-18T14:05:32.962Z,20.40
2022-09-18T14:08:10.356Z,20.40
2022-09-18T14:11:19.539Z,20.30
2022-09-18T14:13:54.130Z,20.30
2022-09-18T14:16:32.984Z,20.40
2022-09-18T14:19:16.645Z,20.40
2022-09-18T14:21:45.673Z,20.30
2022-09-18T14:24:56.343Z,20.40
2022-09-18T14:27:50.647Z,20.40
2022-09-18T14:30:22.075Z,20.40
2022-09-18T14:33:13.331Z,20.30
2022-09-18T14:35:50.849Z,20.40
2022-09-18T14:38:27.553Z,20.40
2022-09-18T14:41:00.578Z,20.40
2022-09-18T14:43:28.690Z,20.40
2022-09-18T14:45:57.073Z,20.30
2022-09-18T14:48:30.365Z,20.30
2022-09-18T14:51:05.833Z,20.40
2022-09-18T14:53:43.676Z,20.30
2022-09-18T14:56:15.829Z,20.30
2022-09-18T14:58:47.722Z,20.30
2022-09-18T15:01:19.368Z,20.40
2022-09-18T15:03:50.240Z,20.30
2022-09-18T15:06:22.481Z,20.40
2022-09-18T15:08:53.329Z,20.30
2022-09-18T15:11:23.747Z,20.40
2022-09-18T15:13:54.207Z,20.40
2022-09-18T15:16:27.101Z,20.20
2022-09-18T15:18:55.675Z,20.40
2022-09-18T15:21:32.858Z,20.30
2022-09-18T15:24:03.224Z,20.40
2022-09-18T15:26:33.688Z,20.30
2022-09-18T15:29:05.045Z,20.30
2022-09-18T15:31:34.383Z,20.30
2022-09-18T15:34:08.642Z,20.30
2022-09-18T15:36:40.871Z,20.30
2022-09-18T15:39:23.758Z,20.20
2022-09-18T15:41:52.544Z,20.30
2022-09-18T15:45:10.235Z,20.30
2022-09-18T15:47:40.214Z,20.30
2022-09-18T15:50:38.035Z,20.30
2022-09-18T15:53:25.257Z,20.30
2022-09-18T15:56:01.806Z,20.40
2022-09-18T15:58:46.406Z,20.30
2022-09-18T16:01:35.375Z,20.30
2022-09-18T16:04:08.944Z,20.30
2022-09-18T16:06:43.536Z,20.20
2022-09-18T16:09:24.214Z,20.40
2022-09-18T16:11:52.735Z,20.40
2022-09-18T16:14:46.658Z,20.30
2022-09-18T16:17:36.621Z,20.30
2022-09-18T16:20:25.040Z,20.30
2022-09-18T16:22:56.083Z,20.30
2022-09-18T16:25:28.831Z,20.40
2022-09-18T16:27:58.790Z,20.30
2022-09-18T16:30:27.337Z,20.40
2022-09-18T16:33:00.578Z,20.40
2022-09-18T16:35:28.444Z,20.40
2022-09-18T16:37:56.339Z,20.40
2022-09-18T16:40:28.945Z,20.40
2022-09-18T16:42:58.443Z,20.40
2022-09-18T16:45:27.819Z,20.50
2022-09-18T16:48:00.673Z,20.40
2022-09-18T16:50:28.994Z,20.50
2022-09-18T16:53:01.254Z,20.40
2022-09-18T16:55:32.228Z,20.40
2022-09-18T16:58:00.883Z,20.30
2022-09-18T17:00:29.047Z,20.50
2022-09-18T17:02:57.715Z,20.40
2022-09-18T17:05:25.690Z,20.40
2022-09-18T17:07:53.559Z,20.40
2022-09-18T17:10:21.744Z,20.40
2022-09-18T17:12:51.162Z,20.40
2022-09-18T17:15:19.120Z,20.40
2022-09-18T17:17:46.993Z,20.30
2022-09-18T17:20:17.809Z,20.40
2022-09-18T17:22:45.880Z,20.30
2022-09-18T17:25:14.319Z,20.30
2022-09-18T17:27:43.841Z,20.30
2022-09-18T17:30:13.873Z,20.30
2022-09-18T17:32:41.851Z,20.30
2022-09-18T17:35:09.794Z,20.30
2022-09-18T17:37:37.756Z,20.30
2022-09-18T17:40:06.348Z,20.20
2022-09-18T17:42:34.375Z,20.30
2022-09-18T17:45:02.239Z,20.20
2022-09-18T17:47:31.510Z,20.20
2022-09-18T17:49:59.462Z,20.30
2022-09-18T17:52:27.445Z,20.30
2022-09-18T17:54:55.318Z,20.20
2022-09-18T17:57:23.208Z,20.10
2022-09-18T17:59:51.137Z,20.20
2022-09-18T18:02:19.058Z,20.20
2022-09-18T18:04:48.367Z,20.20
2022-09-18T18:07:16.243Z,20.20
2022-09-18T18:09:44.247Z,20.30
2022-09-18T18:12:12.298Z,20.30
2022-09-18T18:14:40.185Z,20.40
2022-09-18T18:17:08.547Z,20.20
2022-09-18T18:19:36.498Z,20.50
2022-09-18T18:22:05.770Z,20.50
2022-09-18T18:24:33.649Z,20.40
2022-09-18T18:27:01.599Z,20.50
2022-09-18T18:29:29.536Z,20.40
2022-09-18T18:31:58.342Z,20.30
2022-09-18T18:34:26.693Z,20.50
2022-09-18T18:36:54.707Z,20.50
2022-09-18T18:39:24.026Z,20.40
2022-09-18T18:41:51.926Z,20.40
2022-09-18T18:44:19.797Z,20.50
2022-09-18T18:46:48.100Z,20.40
2022-09-18T18:49:17.031Z,20.40
2022-09-18T18:51:47.603Z,20.50
2022-09-18T18:54:17.619Z,20.30
2022-09-18T18:56:47.592Z,20.40
2022-09-18T18:59:17.294Z,20.40
2022-09-18T19:01:45.773Z,20.40
2022-09-18T19:04:15.634Z,20.40
2022-09-18T19:06:44.805Z,20.50
2022-09-18T19:09:18.076Z,20.40
2022-09-18T19:11:50.593Z,20.40
2022-09-18T19:14:20.125Z,20.40
2022-09-18T19:16:49.263Z,20.30
2022-09-18T19:19:18.662Z,20.30
2022-09-18T19:21:47.222Z,20.40
2022-09-18T19:24:15.343Z,20.40
2022-09-18T19:26:43.895Z,20.30
2022-09-18T19:29:18.766Z,20.40
2022-09-18T19:31:47.908Z,20.40
2022-09-18T19:34:18.427Z,20.40
2022-09-18T19:36:47.147Z,20.40
2022-09-18T19:39:15.583Z,20.40
2022-09-18T19:41:47.779Z,20.40
2022-09-18T19:44:20.136Z,20.40
2022-09-18T19:46:48.251Z,20.30
2022-09-18T19:49:19.675Z,20.40
2022-09-18T19:51:49.178Z,20.40
2022-09-18T19:54:17.083Z,20.40
2022-09-18T19:56:49.223Z,20.40
2022-09-18T19:59:18.500Z,19.80
2022-09-18T20:01:46.498Z,20.30
2022-09-18T20:04:14.414Z,20.20
2022-09-18T20:06:42.391Z,20.30
2022-09-18T20:09:11.054Z,20.40
2022-09-18T20:11:38.949Z,20.30
2022-09-18T20:14:06.845Z,20.40
2022-09-18T20:16:36.131Z,20.40
2022-09-18T20:19:05.957Z,20.40
2022-09-18T20:21:34.222Z,20.40
2022-09-18T20:24:02.465Z,20.70
2022-09-18T20:26:30.385Z,20.30
2022-09-18T20:28:58.358Z,20.60
2022-09-18T20:31:26.501Z,20.30
2022-09-18T20:33:59.796Z,20.30
2022-09-18T20:36:29.295Z,20.30
2022-09-18T20:39:00.567Z,20.40
2022-09-18T20:41:29.608Z,20.30
2022-09-18T20:44:00.161Z,20.40
2022-09-18T20:46:28.190Z,20.40
2022-09-18T20:48:56.128Z,20.30
2022-09-18T20:51:27.589Z,20.30
2022-09-18T20:53:57.261Z,20.40
2022-09-18T20:56:26.647Z,20.30
2022-09-18T20:58:55.058Z,20.40
2022-09-18T21:01:24.956Z,20.40
2022-09-18T21:03:56.603Z,20.30
2022-09-18T21:06:27.850Z,20.30
2022-09-18T21:08:56.744Z,20.40
2022-09-18T21:11:26.497Z,20.20
2022-09-18T21:13:56.042Z,20.30
2022-09-18T21:16:26.123Z,20.40
2022-09-18T21:18:56.585Z,20.30
2022-09-18T21:21:26.973Z,20.40
2022-09-18T21:23:56.360Z,20.30
2022-09-18T21:26:26.800Z,20.30
2022-09-18T21:28:57.213Z,20.30
2022-09-18T21:31:25.663Z,20.30
2022-09-18T21:33:53.942Z,20.40
2022-09-18T21:36:22.621Z,20.30
2022-09-18T21:38:52.507Z,20.40
2022-09-18T21:41:22.374Z,20.20
2022-09-18T21:43:50.687Z,20.30
2022-09-18T21:46:20.794Z,20.30
2022-09-18T21:48:52.850Z,20.30
2022-09-18T21:51:21.188Z,20.30
2022-09-18T21:53:49.187Z,20.20
2022-09-18T21:56:21.217Z,20.30
2022-09-18T21:58:50.219Z,20.40
2022-09-18T22:01:20.173Z,20.30
2022-09-18T22:03:54.597Z,20.20
2022-09-18T22:06:24.273Z,20.30
2022-09-18T22:08:54.490Z,20.30
2022-09-18T22:11:26.142Z,20.30
2022-09-18T22:13:54.989Z,20.10
2022-09-18T22:16:24.212Z,20.20
2022-09-18T22:18:53.042Z,20.20
2022-09-18T22:21:23.213Z,20.10
2022-09-18T22:23:52.866Z,20.10
2022-09-18T22:26:21.182Z,20.00
2022-09-18T22:28:53.959Z,20.20
2022-09-18T22:31:22.565Z,20.30
2022-09-18T22:33:56.141Z,20.20
2022-09-18T22:36:24.685Z,20.10
2022-09-18T22:38:53.261Z,20.10
2022-09-18T22:41:21.866Z,20.00
2022-09-18T22:43:54.946Z,20.00
2022-09-18T22:46:24.241Z,20.00
2022-09-18T22:48:52.302Z,20.00
2022-09-18T22:51:21.590Z,20.00
2022-09-18T22:53:51.247Z,20.10
2022-09-18T22:56:20.906Z,20.00
2022-09-18T22:58:51.462Z,19.90
2022-09-18T23:01:21.458Z,19.90
2022-09-18T23:03:52.347Z,19.90
2022-09-18T23:06:24.882Z,19.90
2022-09-18T23:08:53.897Z,19.80
2022-09-18T23:11:24.203Z,19.90
2022-09-18T23:13:56.385Z,19.80
2022-09-18T23:16:26.040Z,19.90
2022-09-18T23:18:55.532Z,19.90
2022-09-18T23:21:24.117Z,19.90
2022-09-18T23:23:52.190Z,19.80
2022-09-18T23:26:23.834Z,19.80
2022-09-18T23:28:55.102Z,19.80
2022-09-18T23:31:24.971Z,19.80
2022-09-18T23:33:55.214Z,19.70
2022-09-18T23:36:24.884Z,19.80
2022-09-18T23:38:55.034Z,19.70
2022-09-18T23:41:22.923Z,19.70
2022-09-18T23:43:53.083Z,19.80
2022-09-18T23:46:23.713Z,19.90
2022-09-18T23:48:55.664Z,19.80
2022-09-18T23:51:25.785Z,19.80
2022-09-18T23:53:56.701Z,19.70
2022-09-18T23:56:25.232Z,19.70
2022-09-18T23:58:55.282Z,19.70
